sensor_id;sensor_type;location;lat;lon;timestamp;temperature;humidity
36292;DHT22;22327;51.208;6.418;2022-07-29T00:01:06;22.00;54.20
36292;DHT22;22327;51.208;6.418;2022-07-29T00:03:32;22.00;54.20
36292;DHT22;22327;51.208;6.418;2022-07-29T00:05:58;22.00;54.10
36292;DHT22;22327;51.208;6.418;2022-07-29T00:08:23;22.00;54.10
36292;DHT22;22327;51.208;6.418;2022-07-29T00:10:49;22.00;54.10
36292;DHT22;22327;51.208;6.418;2022-07-29T00:13:15;21.90;54.20
36292;DHT22;22327;51.208;6.418;2022-07-29T00:15:40;21.90;54.20
36292;DHT22;22327;51.208;6.418;2022-07-29T00:18:06;21.90;54.20
36292;DHT22;22327;51.208;6.418;2022-07-29T00:20:32;21.90;54.20
36292;DHT22;22327;51.208;6.418;2022-07-29T00:22:57;21.90;54.30
36292;DHT22;22327;51.208;6.418;2022-07-29T00:25:23;21.90;54.30
36292;DHT22;22327;51.208;6.418;2022-07-29T00:27:49;21.90;54.50
36292;DHT22;22327;51.208;6.418;2022-07-29T00:30:14;21.90;54.40
36292;DHT22;22327;51.208;6.418;2022-07-29T00:32:40;21.80;54.40
36292;DHT22;22327;51.208;6.418;2022-07-29T00:35:06;21.80;54.60
36292;DHT22;22327;51.208;6.418;2022-07-29T00:37:51;21.80;54.60
36292;DHT22;22327;51.208;6.418;2022-07-29T00:40:17;21.80;54.80
36292;DHT22;22327;51.208;6.418;2022-07-29T00:42:47;21.80;54.60
36292;DHT22;22327;51.208;6.418;2022-07-29T00:45:14;21.70;54.70
36292;DHT22;22327;51.208;6.418;2022-07-29T00:47:40;21.80;54.80
36292;DHT22;22327;51.208;6.418;2022-07-29T00:50:07;21.70;55.10
36292;DHT22;22327;51.208;6.418;2022-07-29T00:52:35;21.70;54.80
36292;DHT22;22327;51.208;6.418;2022-07-29T00:55:03;21.80;54.90
36292;DHT22;22327;51.208;6.418;2022-07-29T00:57:29;21.70;55.00
36292;DHT22;22327;51.208;6.418;2022-07-29T00:59:55;21.80;55.00
36292;DHT22;22327;51.208;6.418;2022-07-29T01:02:21;21.80;55.00
36292;DHT22;22327;51.208;6.418;2022-07-29T01:04:46;21.80;55.10
36292;DHT22;22327;51.208;6.418;2022-07-29T01:07:12;21.80;55.20
36292;DHT22;22327;51.208;6.418;2022-07-29T01:09:38;21.80;55.80
36292;DHT22;22327;51.208;6.418;2022-07-29T01:12:05;21.80;55.30
36292;DHT22;22327;51.208;6.418;2022-07-29T01:14:31;21.80;55.10
36292;DHT22;22327;51.208;6.418;2022-07-29T01:19:52;21.70;55.60
36292;DHT22;22327;51.208;6.418;2022-07-29T01:31:44;21.60;55.70
36292;DHT22;22327;51.208;6.418;2022-07-29T01:34:14;21.60;55.80
36292;DHT22;22327;51.208;6.418;2022-07-29T01:36:48;21.60;55.80
36292;DHT22;22327;51.208;6.418;2022-07-29T01:39:24;21.70;55.60
36292;DHT22;22327;51.208;6.418;2022-07-29T01:42:15;21.80;55.90
36292;DHT22;22327;51.208;6.418;2022-07-29T01:44:56;21.80;56.00
36292;DHT22;22327;51.208;6.418;2022-07-29T01:47:28;21.60;56.20
36292;DHT22;22327;51.208;6.418;2022-07-29T01:49:56;21.60;56.20
36292;DHT22;22327;51.208;6.418;2022-07-29T01:52:49;21.60;56.30
36292;DHT22;22327;51.208;6.418;2022-07-29T01:55:20;21.60;55.90
36292;DHT22;22327;51.208;6.418;2022-07-29T01:57:49;21.70;56.50
36292;DHT22;22327;51.208;6.418;2022-07-29T02:00:15;21.70;55.80
36292;DHT22;22327;51.208;6.418;2022-07-29T02:02:44;21.60;55.80
36292;DHT22;22327;51.208;6.418;2022-07-29T02:05:13;21.70;55.60
36292;DHT22;22327;51.208;6.418;2022-07-29T02:07:42;21.60;55.40
36292;DHT22;22327;51.208;6.418;2022-07-29T02:10:09;21.50;55.30
36292;DHT22;22327;51.208;6.418;2022-07-29T02:12:36;21.60;55.50
36292;DHT22;22327;51.208;6.418;2022-07-29T02:15:03;21.60;55.30
36292;DHT22;22327;51.208;6.418;2022-07-29T02:17:37;21.70;55.30
36292;DHT22;22327;51.208;6.418;2022-07-29T02:20:07;21.60;55.60
36292;DHT22;22327;51.208;6.418;2022-07-29T02:22:36;21.50;56.00
36292;DHT22;22327;51.208;6.418;2022-07-29T02:25:03;21.50;56.40
36292;DHT22;22327;51.208;6.418;2022-07-29T02:27:30;21.40;56.70
36292;DHT22;22327;51.208;6.418;2022-07-29T02:29:57;21.30;57.00
36292;DHT22;22327;51.208;6.418;2022-07-29T02:32:26;21.30;57.40
36292;DHT22;22327;51.208;6.418;2022-07-29T02:34:53;21.30;57.50
36292;DHT22;22327;51.208;6.418;2022-07-29T02:37:19;21.30;57.60
36292;DHT22;22327;51.208;6.418;2022-07-29T02:39:48;21.30;58.00
36292;DHT22;22327;51.208;6.418;2022-07-29T02:42:16;21.30;58.30
36292;DHT22;22327;51.208;6.418;2022-07-29T02:44:42;21.20;58.60
36292;DHT22;22327;51.208;6.418;2022-07-29T02:47:30;21.20;58.80
36292;DHT22;22327;51.208;6.418;2022-07-29T02:50:11;21.30;58.90
36292;DHT22;22327;51.208;6.418;2022-07-29T02:52:57;21.30;61.40
36292;DHT22;22327;51.208;6.418;2022-07-29T02:55:33;21.20;64.00
36292;DHT22;22327;51.208;6.418;2022-07-29T02:58:05;21.00;65.80
36292;DHT22;22327;51.208;6.418;2022-07-29T03:00:37;20.70;68.80
36292;DHT22;22327;51.208;6.418;2022-07-29T03:03:06;20.30;71.20
36292;DHT22;22327;51.208;6.418;2022-07-29T03:05:32;20.00;73.60
36292;DHT22;22327;51.208;6.418;2022-07-29T03:08:05;19.70;76.40
36292;DHT22;22327;51.208;6.418;2022-07-29T03:10:31;19.20;80.10
36292;DHT22;22327;51.208;6.418;2022-07-29T03:12:57;18.90;83.10
36292;DHT22;22327;51.208;6.418;2022-07-29T03:15:24;18.70;86.00
36292;DHT22;22327;51.208;6.418;2022-07-29T03:17:51;18.50;87.20
36292;DHT22;22327;51.208;6.418;2022-07-29T03:20:17;18.40;88.50
36292;DHT22;22327;51.208;6.418;2022-07-29T03:22:44;18.20;90.00
36292;DHT22;22327;51.208;6.418;2022-07-29T03:25:16;18.00;90.90
36292;DHT22;22327;51.208;6.418;2022-07-29T03:27:42;17.80;91.50
36292;DHT22;22327;51.208;6.418;2022-07-29T03:30:09;17.50;92.40
36292;DHT22;22327;51.208;6.418;2022-07-29T03:32:36;17.50;93.30
36292;DHT22;22327;51.208;6.418;2022-07-29T03:35:02;17.50;93.70
36292;DHT22;22327;51.208;6.418;2022-07-29T03:37:28;17.50;94.50
36292;DHT22;22327;51.208;6.418;2022-07-29T03:39:57;17.70;95.30
36292;DHT22;22327;51.208;6.418;2022-07-29T03:42:26;17.80;94.60
36292;DHT22;22327;51.208;6.418;2022-07-29T03:44:52;17.80;95.00
36292;DHT22;22327;51.208;6.418;2022-07-29T03:47:23;17.80;95.40
36292;DHT22;22327;51.208;6.418;2022-07-29T03:49:52;17.80;95.50
36292;DHT22;22327;51.208;6.418;2022-07-29T03:52:19;17.70;95.90
36292;DHT22;22327;51.208;6.418;2022-07-29T03:54:46;17.70;96.00
36292;DHT22;22327;51.208;6.418;2022-07-29T03:57:12;17.70;96.20
36292;DHT22;22327;51.208;6.418;2022-07-29T03:59:38;17.80;96.40
36292;DHT22;22327;51.208;6.418;2022-07-29T04:02:05;17.80;96.40
36292;DHT22;22327;51.208;6.418;2022-07-29T04:04:37;17.90;96.50
36292;DHT22;22327;51.208;6.418;2022-07-29T04:07:03;17.90;96.70
36292;DHT22;22327;51.208;6.418;2022-07-29T04:09:29;17.80;96.80
36292;DHT22;22327;51.208;6.418;2022-07-29T04:11:54;17.90;96.70
36292;DHT22;22327;51.208;6.418;2022-07-29T04:14:20;17.90;96.90
36292;DHT22;22327;51.208;6.418;2022-07-29T04:16:46;18.00;96.90
36292;DHT22;22327;51.208;6.418;2022-07-29T04:19:12;18.10;97.40
36292;DHT22;22327;51.208;6.418;2022-07-29T04:21:41;18.20;97.10
36292;DHT22;22327;51.208;6.418;2022-07-29T04:24:07;18.20;96.30
36292;DHT22;22327;51.208;6.418;2022-07-29T04:26:33;18.10;96.60
36292;DHT22;22327;51.208;6.418;2022-07-29T04:28:59;18.10;97.00
36292;DHT22;22327;51.208;6.418;2022-07-29T04:31:24;18.10;97.40
36292;DHT22;22327;51.208;6.418;2022-07-29T04:33:50;18.10;97.10
36292;DHT22;22327;51.208;6.418;2022-07-29T04:36:15;18.10;97.20
36292;DHT22;22327;51.208;6.418;2022-07-29T04:38:41;18.20;97.30
36292;DHT22;22327;51.208;6.418;2022-07-29T04:41:07;18.30;97.90
36292;DHT22;22327;51.208;6.418;2022-07-29T04:43:34;18.40;98.00
36292;DHT22;22327;51.208;6.418;2022-07-29T04:46:00;18.50;97.70
36292;DHT22;22327;51.208;6.418;2022-07-29T04:48:26;18.50;97.30
36292;DHT22;22327;51.208;6.418;2022-07-29T04:50:51;18.50;97.30
36292;DHT22;22327;51.208;6.418;2022-07-29T04:53:17;18.50;97.40
36292;DHT22;22327;51.208;6.418;2022-07-29T04:55:43;18.40;96.90
36292;DHT22;22327;51.208;6.418;2022-07-29T04:58:10;18.40;97.30
36292;DHT22;22327;51.208;6.418;2022-07-29T05:00:36;18.40;97.60
36292;DHT22;22327;51.208;6.418;2022-07-29T05:03:02;18.30;97.80
36292;DHT22;22327;51.208;6.418;2022-07-29T05:05:28;18.30;97.80
36292;DHT22;22327;51.208;6.418;2022-07-29T05:07:53;18.30;98.10
36292;DHT22;22327;51.208;6.418;2022-07-29T05:10:19;18.30;98.40
36292;DHT22;22327;51.208;6.418;2022-07-29T05:12:45;18.40;98.50
36292;DHT22;22327;51.208;6.418;2022-07-29T05:15:10;18.40;98.20
36292;DHT22;22327;51.208;6.418;2022-07-29T05:17:36;18.50;98.40
36292;DHT22;22327;51.208;6.418;2022-07-29T05:20:01;18.50;98.20
36292;DHT22;22327;51.208;6.418;2022-07-29T05:22:27;18.50;97.70
36292;DHT22;22327;51.208;6.418;2022-07-29T05:24:53;18.50;98.00
36292;DHT22;22327;51.208;6.418;2022-07-29T05:27:18;18.50;98.10
36292;DHT22;22327;51.208;6.418;2022-07-29T05:29:44;18.50;98.40
36292;DHT22;22327;51.208;6.418;2022-07-29T05:32:09;18.50;98.30
36292;DHT22;22327;51.208;6.418;2022-07-29T05:34:35;18.50;98.20
36292;DHT22;22327;51.208;6.418;2022-07-29T05:37:00;18.40;98.60
36292;DHT22;22327;51.208;6.418;2022-07-29T05:39:26;18.50;98.90
36292;DHT22;22327;51.208;6.418;2022-07-29T05:41:51;18.50;98.70
36292;DHT22;22327;51.208;6.418;2022-07-29T05:44:17;18.50;98.90
36292;DHT22;22327;51.208;6.418;2022-07-29T05:46:43;18.40;98.40
36292;DHT22;22327;51.208;6.418;2022-07-29T05:49:08;18.50;98.70
36292;DHT22;22327;51.208;6.418;2022-07-29T05:51:34;18.50;98.70
36292;DHT22;22327;51.208;6.418;2022-07-29T05:54:00;18.50;99.20
36292;DHT22;22327;51.208;6.418;2022-07-29T05:56:25;18.60;99.00
36292;DHT22;22327;51.208;6.418;2022-07-29T05:58:51;18.70;99.50
36292;DHT22;22327;51.208;6.418;2022-07-29T06:01:17;18.80;99.30
36292;DHT22;22327;51.208;6.418;2022-07-29T06:03:42;18.90;99.20
36292;DHT22;22327;51.208;6.418;2022-07-29T06:06:08;19.10;99.50
36292;DHT22;22327;51.208;6.418;2022-07-29T06:08:35;19.20;99.40
36292;DHT22;22327;51.208;6.418;2022-07-29T06:11:01;19.40;99.40
36292;DHT22;22327;51.208;6.418;2022-07-29T06:13:27;19.50;99.70
36292;DHT22;22327;51.208;6.418;2022-07-29T06:15:53;19.80;99.90
36292;DHT22;22327;51.208;6.418;2022-07-29T06:18:18;20.20;99.80
36292;DHT22;22327;51.208;6.418;2022-07-29T06:20:46;20.60;98.50
36292;DHT22;22327;51.208;6.418;2022-07-29T06:23:12;20.80;96.60
36292;DHT22;22327;51.208;6.418;2022-07-29T06:25:39;20.80;96.70
36292;DHT22;22327;51.208;6.418;2022-07-29T06:28:05;20.70;96.70
36292;DHT22;22327;51.208;6.418;2022-07-29T06:30:30;20.60;96.80
36292;DHT22;22327;51.208;6.418;2022-07-29T06:32:56;20.60;97.20
36292;DHT22;22327;51.208;6.418;2022-07-29T06:35:21;20.60;96.90
36292;DHT22;22327;51.208;6.418;2022-07-29T06:37:47;20.60;97.40
36292;DHT22;22327;51.208;6.418;2022-07-29T06:40:12;20.40;96.90
36292;DHT22;22327;51.208;6.418;2022-07-29T06:42:56;20.20;96.70
36292;DHT22;22327;51.208;6.418;2022-07-29T06:45:22;20.10;97.20
36292;DHT22;22327;51.208;6.418;2022-07-29T06:47:48;20.00;98.00
36292;DHT22;22327;51.208;6.418;2022-07-29T06:50:15;20.10;98.30
36292;DHT22;22327;51.208;6.418;2022-07-29T06:52:41;20.10;98.30
36292;DHT22;22327;51.208;6.418;2022-07-29T06:55:08;20.10;98.50
36292;DHT22;22327;51.208;6.418;2022-07-29T06:57:34;20.20;98.70
36292;DHT22;22327;51.208;6.418;2022-07-29T06:59:59;20.30;98.40
36292;DHT22;22327;51.208;6.418;2022-07-29T07:02:25;20.30;97.90
36292;DHT22;22327;51.208;6.418;2022-07-29T07:04:51;20.20;97.60
36292;DHT22;22327;51.208;6.418;2022-07-29T07:07:17;20.10;97.50
36292;DHT22;22327;51.208;6.418;2022-07-29T07:09:43;20.10;97.80
36292;DHT22;22327;51.208;6.418;2022-07-29T07:12:08;19.90;98.00
36292;DHT22;22327;51.208;6.418;2022-07-29T07:14:34;19.80;97.70
36292;DHT22;22327;51.208;6.418;2022-07-29T07:16:59;19.60;98.00
36292;DHT22;22327;51.208;6.418;2022-07-29T07:19:28;19.40;98.30
36292;DHT22;22327;51.208;6.418;2022-07-29T07:21:54;19.30;98.90
36292;DHT22;22327;51.208;6.418;2022-07-29T07:24:19;19.20;99.10
36292;DHT22;22327;51.208;6.418;2022-07-29T07:26:45;19.20;99.60
36292;DHT22;22327;51.208;6.418;2022-07-29T07:29:11;19.20;99.20
36292;DHT22;22327;51.208;6.418;2022-07-29T07:31:37;19.20;99.80
36292;DHT22;22327;51.208;6.418;2022-07-29T07:34:03;19.30;99.90
36292;DHT22;22327;51.208;6.418;2022-07-29T07:36:28;19.40;99.90
36292;DHT22;22327;51.208;6.418;2022-07-29T07:38:54;19.60;99.90
36292;DHT22;22327;51.208;6.418;2022-07-29T07:41:20;19.70;99.90
36292;DHT22;22327;51.208;6.418;2022-07-29T07:43:46;19.90;99.90
36292;DHT22;22327;51.208;6.418;2022-07-29T07:46:11;20.10;99.80
36292;DHT22;22327;51.208;6.418;2022-07-29T07:48:37;20.20;99.80
36292;DHT22;22327;51.208;6.418;2022-07-29T07:51:03;20.40;99.40
36292;DHT22;22327;51.208;6.418;2022-07-29T07:53:29;20.50;99.10
36292;DHT22;22327;51.208;6.418;2022-07-29T07:55:55;20.70;98.70
36292;DHT22;22327;51.208;6.418;2022-07-29T07:58:20;20.90;97.80
36292;DHT22;22327;51.208;6.418;2022-07-29T08:00:46;21.00;98.70
36292;DHT22;22327;51.208;6.418;2022-07-29T08:03:12;21.10;98.70
36292;DHT22;22327;51.208;6.418;2022-07-29T08:05:39;21.20;99.00
36292;DHT22;22327;51.208;6.418;2022-07-29T08:08:05;21.40;98.00
36292;DHT22;22327;51.208;6.418;2022-07-29T08:10:30;21.80;99.60
36292;DHT22;22327;51.208;6.418;2022-07-29T08:13:15;22.30;99.10
36292;DHT22;22327;51.208;6.418;2022-07-29T08:15:41;22.60;96.10
36292;DHT22;22327;51.208;6.418;2022-07-29T08:18:08;22.70;93.90
36292;DHT22;22327;51.208;6.418;2022-07-29T08:20:33;22.70;95.30
36292;DHT22;22327;51.208;6.418;2022-07-29T08:23:01;22.70;95.00
36292;DHT22;22327;51.208;6.418;2022-07-29T08:25:27;22.70;95.00
36292;DHT22;22327;51.208;6.418;2022-07-29T08:27:52;22.60;95.30
36292;DHT22;22327;51.208;6.418;2022-07-29T08:30:18;22.60;95.70
36292;DHT22;22327;51.208;6.418;2022-07-29T08:32:44;22.60;95.80
36292;DHT22;22327;51.208;6.418;2022-07-29T08:35:09;22.70;95.30
36292;DHT22;22327;51.208;6.418;2022-07-29T08:37:35;22.70;94.70
36292;DHT22;22327;51.208;6.418;2022-07-29T08:40:00;22.70;94.90
36292;DHT22;22327;51.208;6.418;2022-07-29T08:42:26;22.60;95.30
36292;DHT22;22327;51.208;6.418;2022-07-29T08:44:52;22.60;96.00
36292;DHT22;22327;51.208;6.418;2022-07-29T08:47:19;22.60;96.00
36292;DHT22;22327;51.208;6.418;2022-07-29T08:49:44;22.50;95.90
36292;DHT22;22327;51.208;6.418;2022-07-29T08:52:12;22.60;96.20
36292;DHT22;22327;51.208;6.418;2022-07-29T08:54:39;22.60;96.30
36292;DHT22;22327;51.208;6.418;2022-07-29T08:57:09;22.50;95.30
36292;DHT22;22327;51.208;6.418;2022-07-29T08:59:40;22.50;95.90
36292;DHT22;22327;51.208;6.418;2022-07-29T09:02:12;22.40;95.70
36292;DHT22;22327;51.208;6.418;2022-07-29T09:04:40;22.30;95.80
36292;DHT22;22327;51.208;6.418;2022-07-29T09:07:06;22.20;96.10
36292;DHT22;22327;51.208;6.418;2022-07-29T09:09:33;22.20;96.20
36292;DHT22;22327;51.208;6.418;2022-07-29T09:11:59;22.30;97.00
36292;DHT22;22327;51.208;6.418;2022-07-29T09:14:25;22.40;96.90
36292;DHT22;22327;51.208;6.418;2022-07-29T09:16:55;22.70;97.30
36292;DHT22;22327;51.208;6.418;2022-07-29T09:21:50;24.40;97.70
36292;DHT22;22327;51.208;6.418;2022-07-29T09:24:26;25.40;97.00
36292;DHT22;22327;51.208;6.418;2022-07-29T09:26:52;26.60;96.00
36292;DHT22;22327;51.208;6.418;2022-07-29T09:29:20;27.80;95.10
36292;DHT22;22327;51.208;6.418;2022-07-29T09:31:48;28.80;92.40
36292;DHT22;22327;51.208;6.418;2022-07-29T09:34:21;29.80;91.20
36292;DHT22;22327;51.208;6.418;2022-07-29T09:36:49;30.80;86.20
36292;DHT22;22327;51.208;6.418;2022-07-29T09:39:36;31.40;83.10
36292;DHT22;22327;51.208;6.418;2022-07-29T09:42:04;32.30;78.40
36292;DHT22;22327;51.208;6.418;2022-07-29T09:44:47;33.00;71.60
36292;DHT22;22327;51.208;6.418;2022-07-29T09:47:18;33.50;63.10
36292;DHT22;22327;51.208;6.418;2022-07-29T09:49:56;33.70;67.50
36292;DHT22;22327;51.208;6.418;2022-07-29T09:52:27;33.70;61.40
36292;DHT22;22327;51.208;6.418;2022-07-29T09:54:53;33.40;63.00
36292;DHT22;22327;51.208;6.418;2022-07-29T09:57:25;34.00;66.30
36292;DHT22;22327;51.208;6.418;2022-07-29T10:00:13;34.20;57.90
36292;DHT22;22327;51.208;6.418;2022-07-29T10:02:41;34.10;54.70
36292;DHT22;22327;51.208;6.418;2022-07-29T10:05:23;34.20;56.50
36292;DHT22;22327;51.208;6.418;2022-07-29T10:07:54;34.00;48.30
36292;DHT22;22327;51.208;6.418;2022-07-29T10:10:28;33.50;54.70
36292;DHT22;22327;51.208;6.418;2022-07-29T10:12:57;33.00;52.90
36292;DHT22;22327;51.208;6.418;2022-07-29T10:15:27;32.10;53.50
36292;DHT22;22327;51.208;6.418;2022-07-29T10:17:54;31.30;53.10
36292;DHT22;22327;51.208;6.418;2022-07-29T10:20:21;30.70;52.90
36292;DHT22;22327;51.208;6.418;2022-07-29T10:22:48;30.20;55.00
36292;DHT22;22327;51.208;6.418;2022-07-29T10:25:14;30.00;55.10
36292;DHT22;22327;51.208;6.418;2022-07-29T10:27:41;29.70;53.40
36292;DHT22;22327;51.208;6.418;2022-07-29T10:30:08;29.50;54.90
36292;DHT22;22327;51.208;6.418;2022-07-29T10:43:30;28.80;52.10
36292;DHT22;22327;51.208;6.418;2022-07-29T10:45:59;28.40;52.90
36292;DHT22;22327;51.208;6.418;2022-07-29T10:48:26;28.30;53.10
36292;DHT22;22327;51.208;6.418;2022-07-29T10:53:19;27.40;53.10
36292;DHT22;22327;51.208;6.418;2022-07-29T10:55:45;27.10;54.40
36292;DHT22;22327;51.208;6.418;2022-07-29T10:58:23;27.10;55.80
36292;DHT22;22327;51.208;6.418;2022-07-29T11:00:51;27.10;56.30
36292;DHT22;22327;51.208;6.418;2022-07-29T11:06:05;27.30;55.50
36292;DHT22;22327;51.208;6.418;2022-07-29T11:08:31;27.30;55.00
36292;DHT22;22327;51.208;6.418;2022-07-29T11:16:14;27.30;55.70
36292;DHT22;22327;51.208;6.418;2022-07-29T11:21:38;26.90;55.90
36292;DHT22;22327;51.208;6.418;2022-07-29T11:24:14;26.70;56.20
36292;DHT22;22327;51.208;6.418;2022-07-29T11:26:40;26.60;56.70
36292;DHT22;22327;51.208;6.418;2022-07-29T11:29:21;26.40;57.00
36292;DHT22;22327;51.208;6.418;2022-07-29T11:31:52;26.30;57.10
36292;DHT22;22327;51.208;6.418;2022-07-29T11:34:27;26.20;57.40
36292;DHT22;22327;51.208;6.418;2022-07-29T11:39:32;26.30;57.00
36292;DHT22;22327;51.208;6.418;2022-07-29T11:44:59;26.40;57.50
36292;DHT22;22327;51.208;6.418;2022-07-29T11:47:31;26.50;56.70
36292;DHT22;22327;51.208;6.418;2022-07-29T11:49:58;26.30;57.50
36292;DHT22;22327;51.208;6.418;2022-07-29T11:52:35;26.50;57.40
36292;DHT22;22327;51.208;6.418;2022-07-29T11:55:04;26.70;56.80
36292;DHT22;22327;51.208;6.418;2022-07-29T11:57:30;26.90;57.00
36292;DHT22;22327;51.208;6.418;2022-07-29T11:59:58;26.90;56.90
36292;DHT22;22327;51.208;6.418;2022-07-29T12:02:24;27.10;57.40
36292;DHT22;22327;51.208;6.418;2022-07-29T12:04:54;27.20;56.90
36292;DHT22;22327;51.208;6.418;2022-07-29T12:07:33;27.40;56.60
36292;DHT22;22327;51.208;6.418;2022-07-29T12:10:00;27.70;56.70
36292;DHT22;22327;51.208;6.418;2022-07-29T12:12:26;27.70;55.50
36292;DHT22;22327;51.208;6.418;2022-07-29T12:14:52;27.70;55.70
36292;DHT22;22327;51.208;6.418;2022-07-29T12:19:53;28.00;54.90
36292;DHT22;22327;51.208;6.418;2022-07-29T12:22:30;27.90;54.60
36292;DHT22;22327;51.208;6.418;2022-07-29T12:25:01;28.20;54.40
36292;DHT22;22327;51.208;6.418;2022-07-29T12:27:27;28.30;54.80
36292;DHT22;22327;51.208;6.418;2022-07-29T12:29:57;28.20;53.60
36292;DHT22;22327;51.208;6.418;2022-07-29T12:32:23;27.80;53.20
36292;DHT22;22327;51.208;6.418;2022-07-29T12:34:50;27.50;54.30
36292;DHT22;22327;51.208;6.418;2022-07-29T12:37:16;27.50;55.10
36292;DHT22;22327;51.208;6.418;2022-07-29T12:39:42;27.40;54.80
36292;DHT22;22327;51.208;6.418;2022-07-29T12:42:12;27.20;55.10
36292;DHT22;22327;51.208;6.418;2022-07-29T12:44:48;27.20;56.10
36292;DHT22;22327;51.208;6.418;2022-07-29T12:47:15;27.30;54.60
36292;DHT22;22327;51.208;6.418;2022-07-29T12:49:40;27.20;54.40
36292;DHT22;22327;51.208;6.418;2022-07-29T12:52:28;27.20;53.70
36292;DHT22;22327;51.208;6.418;2022-07-29T12:54:54;27.00;54.80
36292;DHT22;22327;51.208;6.418;2022-07-29T12:57:20;26.90;55.10
36292;DHT22;22327;51.208;6.418;2022-07-29T13:00:08;26.90;55.40
36292;DHT22;22327;51.208;6.418;2022-07-29T13:02:36;26.90;55.90
36292;DHT22;22327;51.208;6.418;2022-07-29T13:05:03;26.80;56.60
36292;DHT22;22327;51.208;6.418;2022-07-29T13:07:31;26.70;56.30
36292;DHT22;22327;51.208;6.418;2022-07-29T13:10:15;26.70;56.50
36292;DHT22;22327;51.208;6.418;2022-07-29T13:13:23;26.60;55.70
36292;DHT22;22327;51.208;6.418;2022-07-29T13:15:30;26.50;56.70
36292;DHT22;22327;51.208;6.418;2022-07-29T13:17:56;26.40;56.90
36292;DHT22;22327;51.208;6.418;2022-07-29T13:20:25;26.50;57.90
36292;DHT22;22327;51.208;6.418;2022-07-29T13:22:52;26.60;57.60
36292;DHT22;22327;51.208;6.418;2022-07-29T13:27:50;26.60;56.10
36292;DHT22;22327;51.208;6.418;2022-07-29T13:30:16;26.50;55.70
36292;DHT22;22327;51.208;6.418;2022-07-29T13:32:42;26.40;55.70
36292;DHT22;22327;51.208;6.418;2022-07-29T13:35:08;26.30;56.20
36292;DHT22;22327;51.208;6.418;2022-07-29T13:37:35;26.30;54.60
36292;DHT22;22327;51.208;6.418;2022-07-29T13:40:04;26.20;55.40
36292;DHT22;22327;51.208;6.418;2022-07-29T13:42:31;26.10;54.90
36292;DHT22;22327;51.208;6.418;2022-07-29T13:44:57;26.10;55.80
36292;DHT22;22327;51.208;6.418;2022-07-29T13:47:23;26.10;54.40
36292;DHT22;22327;51.208;6.418;2022-07-29T13:49:49;26.10;54.30
36292;DHT22;22327;51.208;6.418;2022-07-29T13:52:15;26.10;55.00
36292;DHT22;22327;51.208;6.418;2022-07-29T13:54:41;26.10;55.00
36292;DHT22;22327;51.208;6.418;2022-07-29T13:57:07;26.20;55.60
36292;DHT22;22327;51.208;6.418;2022-07-29T13:59:33;26.30;56.20
36292;DHT22;22327;51.208;6.418;2022-07-29T14:01:59;26.30;55.80
36292;DHT22;22327;51.208;6.418;2022-07-29T14:04:25;26.30;56.40
36292;DHT22;22327;51.208;6.418;2022-07-29T14:06:51;26.40;56.70
36292;DHT22;22327;51.208;6.418;2022-07-29T14:09:17;26.40;55.80
36292;DHT22;22327;51.208;6.418;2022-07-29T14:11:42;26.50;55.30
36292;DHT22;22327;51.208;6.418;2022-07-29T14:14:08;26.50;55.90
36292;DHT22;22327;51.208;6.418;2022-07-29T14:16:35;26.50;56.40
36292;DHT22;22327;51.208;6.418;2022-07-29T14:19:01;26.60;55.50
36292;DHT22;22327;51.208;6.418;2022-07-29T14:21:26;26.60;55.60
36292;DHT22;22327;51.208;6.418;2022-07-29T14:23:52;26.60;55.70
36292;DHT22;22327;51.208;6.418;2022-07-29T14:26:20;26.70;55.40
36292;DHT22;22327;51.208;6.418;2022-07-29T14:28:45;26.90;55.20
36292;DHT22;22327;51.208;6.418;2022-07-29T14:31:11;26.90;53.10
36292;DHT22;22327;51.208;6.418;2022-07-29T14:33:36;26.90;54.50
36292;DHT22;22327;51.208;6.418;2022-07-29T14:36:03;26.90;53.90
36292;DHT22;22327;51.208;6.418;2022-07-29T14:38:28;27.10;54.10
36292;DHT22;22327;51.208;6.418;2022-07-29T14:40:54;27.20;54.50
36292;DHT22;22327;51.208;6.418;2022-07-29T14:43:19;27.20;55.10
36292;DHT22;22327;51.208;6.418;2022-07-29T14:45:45;27.20;55.10
36292;DHT22;22327;51.208;6.418;2022-07-29T14:48:10;27.30;54.80
36292;DHT22;22327;51.208;6.418;2022-07-29T14:50:36;27.20;55.20
36292;DHT22;22327;51.208;6.418;2022-07-29T14:53:02;27.20;55.90
36292;DHT22;22327;51.208;6.418;2022-07-29T14:55:28;27.10;55.90
36292;DHT22;22327;51.208;6.418;2022-07-29T14:57:54;27.20;56.50
36292;DHT22;22327;51.208;6.418;2022-07-29T15:00:20;27.20;56.30
36292;DHT22;22327;51.208;6.418;2022-07-29T15:02:46;27.20;56.40
36292;DHT22;22327;51.208;6.418;2022-07-29T15:05:12;27.20;56.80
36292;DHT22;22327;51.208;6.418;2022-07-29T15:07:38;27.30;57.00
36292;DHT22;22327;51.208;6.418;2022-07-29T15:10:03;27.40;57.10
36292;DHT22;22327;51.208;6.418;2022-07-29T15:12:30;27.50;57.20
36292;DHT22;22327;51.208;6.418;2022-07-29T15:14:56;27.50;57.30
36292;DHT22;22327;51.208;6.418;2022-07-29T15:17:21;27.60;57.60
36292;DHT22;22327;51.208;6.418;2022-07-29T15:19:47;27.70;56.70
36292;DHT22;22327;51.208;6.418;2022-07-29T15:22:12;27.70;55.30
36292;DHT22;22327;51.208;6.418;2022-07-29T15:24:38;27.70;55.30
36292;DHT22;22327;51.208;6.418;2022-07-29T15:27:04;27.70;55.00
36292;DHT22;22327;51.208;6.418;2022-07-29T15:29:30;27.80;55.30
36292;DHT22;22327;51.208;6.418;2022-07-29T15:31:55;27.80;55.20
36292;DHT22;22327;51.208;6.418;2022-07-29T15:34:21;27.90;54.80
36292;DHT22;22327;51.208;6.418;2022-07-29T15:36:49;27.90;54.10
36292;DHT22;22327;51.208;6.418;2022-07-29T15:39:15;27.90;54.20
36292;DHT22;22327;51.208;6.418;2022-07-29T15:41:41;27.90;54.40
36292;DHT22;22327;51.208;6.418;2022-07-29T15:44:06;27.90;53.70
36292;DHT22;22327;51.208;6.418;2022-07-29T15:46:32;27.80;54.30
36292;DHT22;22327;51.208;6.418;2022-07-29T15:49:16;27.90;54.30
36292;DHT22;22327;51.208;6.418;2022-07-29T15:51:41;27.90;54.80
36292;DHT22;22327;51.208;6.418;2022-07-29T15:54:07;27.90;54.30
36292;DHT22;22327;51.208;6.418;2022-07-29T15:56:32;27.90;54.60
36292;DHT22;22327;51.208;6.418;2022-07-29T15:58:58;27.90;54.60
36292;DHT22;22327;51.208;6.418;2022-07-29T16:01:24;28.10;54.40
36292;DHT22;22327;51.208;6.418;2022-07-29T16:03:50;28.20;54.90
36292;DHT22;22327;51.208;6.418;2022-07-29T16:06:16;28.30;54.00
36292;DHT22;22327;51.208;6.418;2022-07-29T16:08:42;28.30;53.50
36292;DHT22;22327;51.208;6.418;2022-07-29T16:11:08;28.40;53.60
36292;DHT22;22327;51.208;6.418;2022-07-29T16:13:33;28.50;53.30
36292;DHT22;22327;51.208;6.418;2022-07-29T16:15:59;28.50;53.00
36292;DHT22;22327;51.208;6.418;2022-07-29T16:18:24;28.50;52.90
36292;DHT22;22327;51.208;6.418;2022-07-29T16:20:50;28.60;53.00
36292;DHT22;22327;51.208;6.418;2022-07-29T16:23:16;28.50;52.60